createdAt,value
2024-03-09T00:01:57.971Z,3.46
2024-03-09T00:06:59.208Z,3.37
2024-03-09T00:12:00.461Z,3.3
2024-03-09T00:17:01.895Z,3.19
2024-03-09T00:22:03.627Z,3.11
2024-03-09T00:27:05.698Z,3.04
2024-03-09T00:32:07.072Z,3.01
2024-03-09T00:37:09.124Z,3.03
2024-03-09T00:42:11.102Z,3.08
2024-03-09T00:47:13.005Z,3.13
2024-03-09T00:52:14.602Z,3.19
2024-03-09T00:57:16.703Z,3.25
2024-03-09T01:02:18.638Z,3.28
2024-03-09T01:07:20.529Z,3.25
2024-03-09T01:12:21.900Z,3.23
2024-03-09T01:17:23.781Z,3.12
2024-03-09T01:22:25.102Z,3.03
2024-03-09T01:27:26.614Z,2.97
2024-03-09T01:32:28.369Z,2.89
2024-03-09T01:37:30.045Z,2.84
2024-03-09T01:42:31.422Z,2.74
2024-03-09T01:47:33.342Z,2.66
2024-03-09T01:52:35.064Z,2.6
2024-03-09T01:57:35.894Z,2.55
2024-03-09T02:02:37.809Z,2.47
2024-03-09T02:07:39.876Z,2.39
2024-03-09T02:12:41.610Z,2.38
2024-03-09T02:17:42.884Z,2.39
2024-03-09T02:22:44.959Z,2.38
2024-03-09T02:27:46.836Z,2.41
2024-03-09T02:32:48.674Z,2.32
2024-03-09T02:37:50.399Z,2.24
2024-03-09T02:42:52.047Z,2.17
2024-03-09T02:47:53.870Z,2.11
2024-03-09T02:52:55.825Z,2.06
2024-03-09T02:57:57.236Z,2
2024-03-09T03:02:58.832Z,1.98
2024-03-09T03:08:00.770Z,1.98
2024-03-09T03:13:02.759Z,1.92
2024-03-09T03:18:04.007Z,1.95
2024-03-09T03:23:05.503Z,1.94
2024-03-09T03:28:07.200Z,1.91
2024-03-09T03:33:08.657Z,1.89
2024-03-09T03:38:10.061Z,1.77
2024-03-09T03:43:12.088Z,1.8
2024-03-09T03:48:13.515Z,1.8
2024-03-09T03:53:15.218Z,1.83
2024-03-09T03:58:17.085Z,1.88
2024-03-09T04:03:18.821Z,1.9
2024-03-09T04:08:20.365Z,1.87
2024-03-09T04:13:22.328Z,1.75
2024-03-09T04:18:24.534Z,1.73
2024-03-09T04:23:25.913Z,1.7
2024-03-09T04:28:27.650Z,1.7
2024-03-09T04:33:29.835Z,1.69
2024-03-09T04:38:31.168Z,1.62
2024-03-09T04:43:32.434Z,1.52
2024-03-09T04:48:33.998Z,1.5
2024-03-09T04:53:35.488Z,1.46
2024-03-09T04:58:37.233Z,1.49
2024-03-09T05:03:39.183Z,1.38
2024-03-09T05:08:41.093Z,1.23
2024-03-09T05:13:43.220Z,1.15
2024-03-09T05:18:45.154Z,1.12
2024-03-09T05:23:46.889Z,1.1
2024-03-09T05:28:48.491Z,0.94
2024-03-09T05:33:50.375Z,0.91
2024-03-09T05:38:52.511Z,0.92
2024-03-09T05:43:54.487Z,0.91
2024-03-09T05:48:56.101Z,0.83
2024-03-09T05:53:57.508Z,0.85
2024-03-09T05:58:59.198Z,0.84
2024-03-09T06:04:00.603Z,0.88
2024-03-09T06:09:02.567Z,0.93
2024-03-09T06:14:04.029Z,0.97
2024-03-09T06:19:06.214Z,1.01
2024-03-09T06:24:08.192Z,1.04
2024-03-09T06:29:10.091Z,1.11
2024-03-09T06:34:11.243Z,1.19
2024-03-09T06:39:12.699Z,1.28
2024-03-09T06:44:14.572Z,1.37
2024-03-09T06:49:16.643Z,1.41
2024-03-09T06:54:18.743Z,1.41
2024-03-09T06:59:20.555Z,1.43
2024-03-09T07:04:22.122Z,1.52
2024-03-09T07:14:25.726Z,1.81
2024-03-09T07:19:26.926Z,1.99
2024-03-09T07:24:29.114Z,2.19
2024-03-09T07:29:30.623Z,2.41
2024-03-09T07:34:31.953Z,2.59
2024-03-09T07:39:33.928Z,2.78
2024-03-09T07:49:37.058Z,3.17
2024-03-09T07:59:40.796Z,3.64
2024-03-09T08:09:44.647Z,4.17
2024-03-09T08:19:48.273Z,4.69
2024-03-09T08:34:52.374Z,5.48
2024-03-09T08:49:56.963Z,6.33
2024-03-09T08:59:59.825Z,6.98
2024-03-09T09:15:04.538Z,8.06
2024-03-09T09:20:06.443Z,8.45
2024-03-09T09:30:08.981Z,9.18
2024-03-09T09:40:12.949Z,9.84
2024-03-09T09:50:16.843Z,10.5
2024-03-09T10:00:19.671Z,11.12
2024-03-09T10:10:23.278Z,11.72
2024-03-09T10:15:25.034Z,11.99
2024-03-09T10:20:27.225Z,12.29
2024-03-09T10:35:32.427Z,13.15
2024-03-09T10:40:34.302Z,13.39
2024-03-09T10:45:36.323Z,13.68
2024-03-09T10:50:38.506Z,13.92
2024-03-09T10:55:40.787Z,14.15
2024-03-09T11:10:45.070Z,14.81
2024-03-09T11:20:48.804Z,15.13
2024-03-09T11:35:53.698Z,15.57
2024-03-09T11:45:56.913Z,15.86
2024-03-09T11:56:00.498Z,16.09
2024-03-09T12:31:12.948Z,17.09
2024-03-09T12:41:16.613Z,17.66
2024-03-09T12:46:18.155Z,18.16
2024-03-09T13:01:23.003Z,19.77
2024-03-09T13:06:32.811Z,20.42
2024-03-09T13:11:26.195Z,21.1
2024-03-09T13:21:29.432Z,22.24
2024-03-09T13:31:32.205Z,23.46
2024-03-09T13:36:34.015Z,23.88
2024-03-09T13:51:39.010Z,23.05
2024-03-09T14:26:50.418Z,21.46
2024-03-09T14:46:58.067Z,20.85
2024-03-09T14:51:59.929Z,20.85
2024-03-09T14:57:01.821Z,20.72
2024-03-09T15:02:03.259Z,20.56
2024-03-09T15:22:10.148Z,19.54
2024-03-09T15:27:12.004Z,19.2
2024-03-09T15:32:14.176Z,18.84
2024-03-09T15:37:15.810Z,18.48
2024-03-09T15:42:23.324Z,18.16
2024-03-09T15:52:26.260Z,17.51
2024-03-09T16:07:31.955Z,16.62
2024-03-09T16:17:35.166Z,16.12
2024-03-09T16:27:38.103Z,15.82
2024-03-09T16:37:41.213Z,15.48
2024-03-09T16:42:43.096Z,15.29
2024-03-09T16:47:53.716Z,15.07
2024-03-09T16:52:46.496Z,14.83
2024-03-09T17:43:03.328Z,12.42
2024-03-09T17:48:05.313Z,12.17
2024-03-09T18:03:10.144Z,11.29
2024-03-09T18:13:14.546Z,10.81
2024-03-09T18:18:16.188Z,10.68
2024-03-09T18:23:17.551Z,10.54
2024-03-09T18:28:19.474Z,10.31
2024-03-09T18:33:21.226Z,10.13
2024-03-09T18:58:29.284Z,9.39
2024-03-09T19:03:31.293Z,9.39
2024-03-09T19:13:34.479Z,9.22
2024-03-09T19:18:35.857Z,9.18
2024-03-09T19:38:42.330Z,8.64
2024-03-09T19:43:44.464Z,8.59
2024-03-09T19:48:49.109Z,8.47
2024-03-09T19:58:59.314Z,8.31
2024-03-09T20:03:51.696Z,8.22
2024-03-09T20:08:52.880Z,8.02
2024-03-09T20:18:56.578Z,7.74
2024-03-09T20:23:57.872Z,7.62
2024-03-09T20:34:01.306Z,7.41
2024-03-09T20:49:05.700Z,7.1
2024-03-09T20:54:07.437Z,6.95
2024-03-09T20:59:08.759Z,6.8
2024-03-09T21:39:22.812Z,6.18
2024-03-09T21:44:24.014Z,6.19
2024-03-09T22:09:32.514Z,6.01
2024-03-09T22:24:37.757Z,6.02
2024-03-09T22:39:43.706Z,5.85
2024-03-09T22:49:47.756Z,5.77
2024-03-09T22:59:51.336Z,5.93
2024-03-09T23:19:58.053Z,6.32
2024-03-09T23:30:01.412Z,6.37
2024-03-09T23:55:08.984Z,6.37
